createdAt,value
2023-05-12T00:01:03.885Z,13.40
2023-05-12T00:03:41.268Z,13.30
2023-05-12T00:06:11.559Z,13.30
2023-05-12T00:08:40.873Z,13.40
2023-05-12T00:11:08.494Z,13.30
2023-05-12T00:13:36.429Z,13.30
2023-05-12T00:16:05.541Z,13.30
2023-05-12T00:18:34.811Z,13.40
2023-05-12T00:21:04.832Z,13.30
2023-05-12T00:23:34.793Z,13.30
2023-05-12T00:26:02.463Z,13.20
2023-05-12T00:28:30.302Z,13.10
2023-05-12T00:31:04.492Z,13.10
2023-05-12T00:33:35.539Z,13.10
2023-05-12T00:36:07.469Z,13.10
2023-05-12T00:38:37.357Z,13.00
2023-05-12T00:41:04.862Z,13.00
2023-05-12T00:43:32.141Z,13.00
2023-05-12T00:46:00.023Z,13.00
2023-05-12T00:48:27.369Z,12.90
2023-05-12T00:50:56.031Z,12.90
2023-05-12T00:53:41.365Z,12.90
2023-05-12T00:56:20.416Z,12.90
2023-05-12T00:58:52.526Z,12.80
2023-05-12T01:01:21.300Z,12.80
2023-05-12T01:03:55.218Z,12.90
2023-05-12T01:06:31.374Z,12.90
2023-05-12T01:08:59.656Z,12.90
2023-05-12T01:11:29.263Z,12.90
2023-05-12T04:07:42.899Z,12.80
2023-05-12T04:10:12.867Z,12.60
2023-05-12T04:12:44.836Z,12.50
2023-05-12T04:15:14.778Z,12.40
2023-05-12T04:17:41.919Z,12.40
2023-05-12T04:20:18.475Z,12.40
2023-05-12T04:22:48.994Z,12.40
2023-05-12T04:25:16.700Z,12.50
2023-05-12T04:27:46.316Z,12.60
2023-05-12T04:30:16.252Z,12.60
2023-05-12T04:32:49.867Z,12.70
2023-05-12T04:35:26.009Z,12.60
2023-05-12T04:38:04.653Z,12.70
2023-05-12T04:40:46.135Z,12.70
2023-05-12T04:45:55.618Z,12.70
2023-05-12T04:48:32.143Z,12.70
2023-05-12T04:51:15.130Z,12.70
2023-05-12T04:56:40.258Z,12.80
2023-05-12T05:02:04.631Z,13.00
2023-05-12T05:04:35.766Z,13.10
2023-05-12T05:07:07.238Z,13.10
2023-05-12T05:09:36.174Z,13.20
2023-05-12T05:12:03.729Z,13.40
2023-05-12T05:14:31.688Z,13.50
2023-05-12T05:17:00.007Z,13.60
2023-05-12T05:19:44.527Z,13.60
2023-05-12T05:22:16.936Z,13.60
2023-05-12T05:24:45.955Z,13.60
2023-05-12T05:27:13.822Z,13.60
2023-05-12T05:29:42.021Z,13.60
2023-05-12T05:32:09.105Z,13.60
2023-05-12T05:34:40.407Z,13.70
2023-05-12T05:37:07.934Z,13.70
2023-05-12T05:39:38.068Z,13.80
2023-05-12T05:42:05.382Z,13.80
2023-05-12T05:44:34.934Z,13.80
2023-05-12T05:47:03.856Z,13.80
2023-05-12T05:49:46.343Z,13.90
2023-05-12T05:52:15.051Z,14.00
2023-05-12T05:54:42.322Z,14.10
2023-05-12T05:57:09.446Z,14.30
2023-05-12T05:59:37.714Z,14.50
2023-05-12T06:02:07.274Z,14.60
2023-05-12T06:04:34.513Z,14.60
2023-05-12T06:07:01.828Z,14.70
2023-05-12T06:09:28.799Z,14.70
2023-05-12T06:11:55.744Z,14.70
2023-05-12T06:14:22.639Z,14.80
2023-05-12T06:16:49.738Z,14.90
2023-05-12T06:19:16.681Z,15.00
2023-05-12T06:21:43.954Z,15.20
2023-05-12T06:24:11.197Z,15.20
2023-05-12T06:26:39.609Z,15.30
2023-05-12T06:29:12.559Z,15.30
2023-05-12T06:31:43.638Z,15.30
2023-05-12T06:34:11.064Z,15.30
2023-05-12T06:36:38.816Z,15.40
2023-05-12T06:39:06.520Z,15.40
2023-05-12T06:41:37.460Z,15.50
2023-05-12T06:44:07.892Z,15.60
2023-05-12T06:46:34.780Z,15.60
2023-05-12T06:49:01.856Z,15.70
2023-05-12T06:51:28.688Z,15.70
2023-05-12T06:53:55.593Z,15.80
2023-05-12T06:56:23.718Z,15.90
2023-05-12T06:58:52.514Z,15.90
2023-05-12T07:01:19.467Z,16.00
2023-05-12T07:03:48.621Z,16.00
2023-05-12T07:06:21.063Z,16.10
2023-05-12T07:08:50.693Z,16.20
2023-05-12T07:11:24.761Z,16.20
2023-05-12T07:13:52.116Z,16.30
2023-05-12T07:16:21.219Z,16.40
2023-05-12T07:18:49.619Z,16.50
2023-05-12T07:21:19.361Z,16.50
2023-05-12T07:23:46.296Z,16.70
2023-05-12T07:26:13.321Z,16.70
2023-05-12T07:28:40.415Z,16.80
2023-05-12T07:31:08.255Z,16.80
2023-05-12T07:33:36.230Z,16.90
2023-05-12T07:36:04.806Z,16.90
2023-05-12T07:38:32.194Z,17.00
2023-05-12T07:41:01.146Z,17.10
2023-05-12T07:43:28.178Z,17.20
2023-05-12T07:45:56.241Z,17.30
2023-05-12T07:48:24.457Z,17.30
2023-05-12T07:50:53.016Z,17.30
2023-05-12T07:53:22.982Z,17.30
2023-05-12T07:55:54.929Z,17.20
2023-05-12T07:58:21.834Z,17.30
2023-05-12T08:00:53.459Z,17.40
2023-05-12T08:03:24.520Z,17.30
2023-05-12T08:05:54.470Z,17.50
2023-05-12T08:08:31.885Z,17.50
2023-05-12T08:11:02.009Z,17.60
2023-05-12T08:13:34.036Z,17.70
2023-05-12T08:16:00.978Z,17.80
2023-05-12T08:18:28.181Z,17.80
2023-05-12T08:20:56.444Z,17.70
2023-05-12T08:23:25.706Z,17.70
2023-05-12T08:25:52.610Z,17.70
2023-05-12T08:28:19.918Z,17.80
2023-05-12T08:30:48.445Z,17.80
2023-05-12T08:33:16.561Z,18.00
2023-05-12T08:35:46.498Z,17.90
2023-05-12T08:38:13.917Z,18.00
2023-05-12T08:41:12.371Z,18.10
2023-05-12T08:43:56.832Z,18.10
2023-05-12T08:46:28.900Z,18.20
2023-05-12T08:49:01.504Z,18.30
2023-05-12T08:51:32.052Z,18.20
2023-05-12T08:54:01.408Z,18.30
2023-05-12T08:59:12.702Z,18.50
2023-05-12T09:01:51.874Z,18.60
2023-05-12T09:07:09.206Z,18.60
2023-05-12T09:09:36.994Z,18.50
2023-05-12T09:12:16.758Z,18.30
2023-05-12T09:14:46.914Z,18.20
2023-05-12T09:17:18.567Z,18.20
2023-05-12T09:19:47.951Z,18.40
2023-05-12T09:22:16.627Z,18.40
2023-05-12T09:24:50.076Z,18.40
2023-05-12T09:27:32.713Z,18.40
2023-05-12T09:30:01.145Z,18.60
2023-05-12T09:32:37.167Z,18.50
2023-05-12T09:35:08.185Z,18.50
2023-05-12T09:37:37.051Z,18.60
2023-05-12T09:40:09.064Z,18.70
2023-05-12T09:42:39.040Z,18.60
2023-05-12T09:45:11.148Z,18.70
2023-05-12T09:47:40.799Z,18.90
2023-05-12T09:50:08.938Z,18.90
2023-05-12T09:52:40.562Z,18.90
2023-05-12T09:55:12.947Z,18.90
2023-05-12T09:57:50.873Z,18.90
2023-05-12T10:00:38.624Z,18.90
2023-05-12T10:03:33.070Z,18.90
2023-05-12T10:06:04.572Z,18.90
2023-05-12T10:08:51.091Z,19.00
2023-05-12T10:11:18.106Z,19.00
2023-05-12T10:13:50.723Z,19.10
2023-05-12T10:16:19.502Z,18.90
2023-05-12T10:18:47.898Z,19.00
2023-05-12T10:21:17.024Z,19.10
2023-05-12T10:23:53.042Z,19.20
2023-05-12T10:26:21.469Z,19.30
2023-05-12T10:28:54.698Z,19.30
2023-05-12T10:31:27.937Z,19.30
2023-05-12T10:34:00.548Z,19.10
2023-05-12T10:36:31.966Z,19.20
2023-05-12T10:39:12.994Z,19.20
2023-05-12T10:41:42.812Z,19.50
2023-05-12T10:44:15.663Z,19.60
2023-05-12T10:46:42.905Z,19.60
2023-05-12T10:49:18.924Z,19.40
2023-05-12T10:51:47.985Z,19.40
2023-05-12T10:54:29.119Z,19.40
2023-05-12T10:57:22.172Z,19.30
2023-05-12T10:59:54.468Z,19.60
2023-05-12T11:02:34.968Z,19.50
2023-05-12T11:05:30.580Z,19.70
2023-05-12T11:08:04.550Z,19.60
2023-05-12T11:10:33.991Z,19.70
2023-05-12T11:13:04.463Z,19.50
2023-05-12T11:15:32.619Z,19.60
2023-05-12T11:18:02.953Z,19.80
2023-05-12T11:20:31.109Z,19.70
2023-05-12T11:23:01.927Z,19.70
2023-05-12T11:25:29.520Z,19.90
2023-05-12T11:27:56.695Z,19.80
2023-05-12T11:30:26.446Z,19.80
2023-05-12T11:33:05.265Z,19.80
2023-05-12T11:35:34.408Z,20.00
2023-05-12T11:38:04.581Z,20.00
2023-05-12T11:40:31.484Z,20.10
2023-05-12T11:43:11.915Z,19.90
2023-05-12T11:45:38.958Z,19.90
2023-05-12T11:48:12.889Z,19.80
2023-05-12T11:50:50.328Z,19.80
2023-05-12T11:53:19.055Z,19.80
2023-05-12T11:55:56.101Z,19.70
2023-05-12T11:58:30.899Z,19.80
2023-05-12T12:01:08.625Z,19.80
2023-05-12T12:03:47.935Z,19.90
2023-05-12T12:06:18.812Z,20.10
2023-05-12T12:09:01.256Z,20.10
2023-05-12T12:11:33.432Z,20.20
2023-05-12T12:14:02.095Z,20.20
2023-05-12T12:16:31.871Z,20.20
2023-05-12T12:19:05.205Z,20.30
2023-05-12T12:21:36.515Z,20.30
2023-05-12T12:24:06.193Z,20.30
2023-05-12T12:26:37.163Z,20.20
2023-05-12T12:29:10.364Z,20.20
2023-05-12T12:31:40.426Z,20.20
2023-05-12T12:34:18.514Z,20.20
2023-05-12T12:36:50.847Z,20.20
2023-05-12T12:39:30.723Z,20.30
2023-05-12T12:42:06.582Z,20.40
2023-05-12T12:44:37.878Z,20.40
2023-05-12T12:47:05.210Z,20.30
2023-05-12T12:49:33.422Z,20.30
2023-05-12T12:52:03.870Z,20.40
2023-05-12T12:54:33.150Z,20.50
2023-05-12T12:57:00.074Z,20.50
2023-05-12T12:59:29.893Z,20.70
2023-05-12T13:02:00.043Z,20.70
2023-05-12T13:04:28.075Z,20.60
2023-05-12T13:06:57.624Z,20.60
2023-05-12T13:09:30.290Z,20.60
2023-05-12T13:12:11.945Z,20.70
2023-05-12T13:14:40.176Z,20.60
2023-05-12T13:17:10.184Z,20.50
2023-05-12T13:19:38.334Z,20.50
2023-05-12T13:22:08.689Z,20.50
2023-05-12T13:24:36.582Z,20.60
2023-05-12T13:27:09.204Z,20.80
2023-05-12T13:29:39.287Z,20.70
2023-05-12T13:32:09.768Z,20.60
2023-05-12T13:34:39.632Z,20.50
2023-05-12T13:37:10.606Z,20.40
2023-05-12T13:39:38.504Z,20.40
2023-05-12T13:42:08.553Z,20.50
2023-05-12T13:44:36.610Z,20.40
2023-05-12T13:47:08.287Z,20.40
2023-05-12T13:49:38.083Z,20.30
2023-05-12T13:52:11.424Z,20.30
2023-05-12T13:54:41.460Z,20.30
2023-05-12T13:57:11.329Z,20.20
2023-05-12T13:59:39.363Z,20.30
2023-05-12T14:02:14.071Z,20.40
2023-05-12T14:04:41.288Z,20.40
2023-05-12T14:07:10.340Z,20.40
2023-05-12T14:09:39.606Z,20.40
2023-05-12T14:12:09.239Z,20.40
2023-05-12T14:14:38.235Z,20.50
2023-05-12T14:17:05.889Z,20.50
2023-05-12T14:19:35.705Z,20.40
2023-05-12T14:22:19.023Z,20.40
2023-05-12T14:25:00.028Z,20.30
2023-05-12T14:27:29.353Z,20.30
2023-05-12T14:29:59.611Z,20.20
2023-05-12T14:32:30.561Z,20.10
2023-05-12T14:34:58.162Z,20.10
2023-05-12T14:37:27.809Z,20.10
2023-05-12T14:39:56.857Z,20.20
2023-05-12T14:42:24.946Z,20.30
2023-05-12T14:44:55.062Z,20.40
2023-05-12T14:47:30.071Z,20.40
2023-05-12T14:49:57.994Z,20.40
2023-05-12T14:52:27.309Z,20.40
2023-05-12T14:54:54.575Z,20.50
2023-05-12T14:57:21.703Z,20.40
2023-05-12T14:59:54.668Z,20.40
2023-05-12T15:02:21.699Z,20.50
2023-05-12T15:04:52.664Z,20.50
2023-05-12T15:07:23.196Z,20.60
2023-05-12T15:09:52.102Z,20.60
2023-05-12T15:12:19.415Z,20.70
2023-05-12T15:14:49.886Z,20.80
2023-05-12T15:17:16.861Z,20.80
2023-05-12T15:19:44.789Z,20.80
2023-05-12T15:22:12.972Z,21.00
2023-05-12T15:24:40.270Z,21.00
2023-05-12T15:27:07.846Z,21.00
2023-05-12T15:29:41.440Z,20.90
2023-05-12T15:32:08.593Z,21.00
2023-05-12T15:34:36.713Z,20.90
2023-05-12T15:37:09.266Z,20.90
2023-05-12T15:39:37.511Z,20.80
2023-05-12T15:42:07.424Z,20.90
2023-05-12T15:44:35.417Z,21.10
2023-05-12T15:47:02.484Z,21.10
2023-05-12T15:49:29.884Z,21.00
2023-05-12T15:51:58.184Z,21.20
2023-05-12T15:54:26.751Z,21.20
2023-05-12T15:56:55.956Z,21.40
2023-05-12T15:59:34.099Z,21.60
2023-05-12T16:02:02.346Z,21.70
2023-05-12T16:04:33.108Z,22.00
2023-05-12T16:07:03.916Z,21.70
2023-05-12T16:09:39.827Z,21.80
2023-05-12T16:12:09.487Z,21.60
2023-05-12T16:14:41.798Z,21.70
2023-05-12T16:17:11.501Z,21.60
2023-05-12T16:19:41.296Z,21.50
2023-05-12T16:22:13.003Z,21.30
2023-05-12T16:24:42.621Z,21.10
2023-05-12T16:27:13.225Z,20.80
2023-05-12T16:29:59.912Z,20.70
2023-05-12T16:32:33.994Z,20.60
2023-05-12T16:35:08.113Z,20.80
2023-05-12T16:37:56.305Z,21.30
2023-05-12T16:40:26.141Z,22.00
2023-05-12T16:42:59.924Z,22.60
2023-05-12T16:45:37.547Z,23.00
2023-05-12T16:48:05.083Z,23.40
2023-05-12T16:50:36.532Z,23.60
2023-05-12T16:53:04.300Z,23.90
2023-05-12T16:55:33.107Z,24.00
2023-05-12T16:58:00.120Z,24.20
2023-05-12T17:00:30.835Z,24.00
2023-05-12T17:03:10.895Z,24.10
2023-05-12T17:05:54.821Z,24.10
2023-05-12T17:08:25.470Z,24.00
2023-05-12T17:10:55.213Z,24.00
2023-05-12T17:13:22.475Z,24.10
2023-05-12T17:15:49.582Z,24.20
2023-05-12T17:18:17.670Z,24.20
2023-05-12T17:20:45.075Z,24.10
2023-05-12T17:23:15.173Z,23.80
2023-05-12T17:25:46.955Z,23.50
2023-05-12T17:28:14.436Z,23.60
2023-05-12T17:30:58.970Z,23.30
2023-05-12T17:38:53.767Z,22.60
2023-05-12T17:41:23.321Z,22.20
2023-05-12T17:43:54.566Z,22.00
2023-05-12T17:46:29.739Z,21.80
2023-05-12T17:48:57.236Z,21.70
2023-05-12T17:51:26.987Z,21.70
2023-05-12T17:53:55.337Z,21.50
2023-05-12T17:56:26.588Z,21.40
2023-05-12T17:58:55.650Z,21.20
2023-05-12T18:01:22.835Z,21.00
2023-05-12T18:03:50.130Z,20.80
2023-05-12T18:06:17.078Z,20.70
2023-05-12T18:08:46.720Z,20.60
2023-05-12T18:11:16.449Z,20.50
2023-05-12T18:13:50.429Z,20.30
2023-05-12T18:16:28.346Z,20.10
2023-05-12T18:18:56.530Z,20.10
2023-05-12T18:21:24.150Z,19.90
2023-05-12T18:23:59.345Z,19.90
2023-05-12T18:26:28.084Z,19.80
2023-05-12T18:29:10.749Z,19.80
2023-05-12T18:31:48.630Z,19.70
2023-05-12T18:34:18.962Z,19.60
2023-05-12T18:36:54.285Z,19.60
2023-05-12T18:39:21.593Z,19.50
2023-05-12T18:41:48.469Z,19.40
2023-05-12T18:44:15.846Z,19.30
2023-05-12T18:46:50.618Z,19.30
2023-05-12T18:49:21.916Z,19.20
2023-05-12T18:51:50.483Z,19.20
2023-05-12T18:54:17.766Z,19.10
2023-05-12T18:56:47.332Z,19.10
2023-05-12T18:59:19.752Z,19.00
2023-05-12T19:01:48.348Z,19.00
2023-05-12T19:04:19.546Z,18.90
2023-05-12T19:06:47.184Z,18.90
2023-05-12T19:09:14.837Z,18.90
2023-05-12T19:11:42.826Z,18.80
2023-05-12T19:14:10.752Z,18.80
2023-05-12T19:16:38.428Z,18.80
2023-05-12T19:19:11.228Z,18.70
2023-05-12T19:21:56.755Z,18.70
2023-05-12T19:24:27.403Z,18.60
2023-05-12T19:26:57.936Z,18.50
2023-05-12T19:29:26.908Z,18.40
2023-05-12T19:31:58.717Z,18.40
2023-05-12T19:37:16.935Z,18.30
2023-05-12T19:39:48.518Z,18.20
2023-05-12T19:45:08.187Z,18.20
2023-05-12T19:47:43.336Z,18.20
2023-05-12T19:50:21.688Z,18.20
2023-05-12T19:52:52.451Z,18.10
2023-05-12T19:58:07.099Z,18.10
2023-05-12T20:00:38.951Z,18.10
2023-05-12T20:03:16.099Z,18.10
2023-05-12T20:05:44.952Z,18.10
2023-05-12T20:08:12.693Z,18.00
2023-05-12T20:10:40.864Z,17.90
2023-05-12T20:13:09.284Z,17.90
2023-05-12T20:15:37.595Z,17.80
2023-05-12T20:18:06.837Z,17.80
2023-05-12T20:20:36.502Z,17.70
2023-05-12T20:23:05.925Z,17.70
2023-05-12T20:25:33.258Z,17.70
2023-05-12T20:28:02.084Z,17.60
2023-05-12T20:30:34.255Z,17.60
2023-05-12T20:33:04.001Z,17.60
2023-05-12T20:35:36.136Z,17.60
2023-05-12T20:38:06.967Z,17.60
2023-05-12T20:40:38.357Z,17.50
2023-05-12T20:43:05.184Z,17.50
2023-05-12T20:45:34.112Z,17.50
2023-05-12T20:48:01.941Z,17.40
2023-05-12T20:50:29.769Z,17.40
2023-05-12T20:55:41.338Z,17.40
2023-05-12T20:58:11.601Z,17.40
2023-05-12T21:00:39.836Z,17.30
2023-05-12T21:03:07.364Z,17.30
2023-05-12T21:05:37.778Z,17.30
2023-05-12T21:08:08.801Z,17.30
2023-05-12T21:10:41.159Z,17.30
2023-05-12T21:13:10.177Z,17.30
2023-05-12T21:15:40.052Z,17.20
2023-05-12T21:18:14.088Z,17.20
2023-05-12T21:20:44.231Z,17.20
2023-05-12T21:23:13.721Z,17.30
2023-05-12T21:25:57.318Z,17.30
2023-05-12T21:28:34.705Z,17.20
2023-05-12T21:31:02.916Z,17.20
2023-05-12T21:33:33.396Z,17.20
2023-05-12T21:36:05.479Z,17.10
2023-05-12T21:39:10.746Z,17.10
2023-05-12T21:41:40.123Z,17.00
2023-05-12T21:44:10.386Z,17.00
2023-05-12T21:46:39.990Z,17.00
2023-05-12T21:49:07.440Z,16.90
2023-05-12T21:51:35.084Z,16.80
2023-05-12T21:55:11.895Z,16.80
2023-05-12T21:57:38.838Z,16.80
2023-05-12T22:00:09.656Z,16.70
2023-05-12T22:02:42.797Z,16.60
2023-05-12T22:05:21.650Z,16.60
2023-05-12T22:07:56.139Z,16.50
2023-05-12T22:10:45.606Z,16.40
2023-05-12T22:13:17.093Z,16.30
2023-05-12T22:15:46.441Z,16.20
2023-05-12T22:18:16.040Z,16.20
2023-05-12T22:20:43.238Z,16.10
2023-05-12T22:23:10.527Z,16.10
2023-05-12T22:25:38.215Z,16.00
2023-05-12T22:28:07.761Z,16.00
2023-05-12T22:30:34.625Z,15.90
2023-05-12T22:33:02.841Z,15.90
2023-05-12T22:35:32.806Z,15.90
2023-05-12T22:38:00.514Z,15.80
2023-05-12T22:40:27.856Z,15.80
2023-05-12T22:42:54.968Z,15.80
2023-05-12T22:45:22.095Z,15.70
2023-05-12T22:47:49.092Z,15.60
2023-05-12T22:50:17.599Z,15.60
2023-05-12T22:52:44.623Z,15.50
2023-05-12T22:55:12.751Z,15.50
2023-05-12T22:57:42.205Z,15.50
2023-05-12T23:00:10.785Z,15.40
2023-05-12T23:02:38.190Z,15.40
2023-05-12T23:05:09.138Z,15.50
2023-05-12T23:07:36.025Z,15.50
2023-05-12T23:10:03.139Z,15.50
2023-05-12T23:12:30.808Z,15.50
2023-05-12T23:14:57.673Z,15.60
2023-05-12T23:17:27.436Z,15.60
2023-05-12T23:19:57.523Z,15.60
2023-05-12T23:22:25.828Z,15.50
2023-05-12T23:24:54.977Z,15.50
2023-05-12T23:27:22.264Z,15.50
2023-05-12T23:29:49.205Z,15.30
2023-05-12T23:32:16.347Z,15.30
2023-05-12T23:34:43.610Z,15.40
2023-05-12T23:37:11.296Z,15.40
2023-05-12T23:39:38.283Z,15.40
2023-05-12T23:42:06.051Z,15.30
2023-05-12T23:44:33.441Z,15.30
2023-05-12T23:47:01.883Z,15.30
2023-05-12T23:49:29.044Z,15.30
2023-05-12T23:51:57.718Z,15.20
2023-05-12T23:54:26.749Z,15.10
2023-05-12T23:56:57.150Z,15.10
2023-05-12T23:59:24.608Z,15.10
